Terminal Aerodrome Forecast
Issued by NWS Charleston, WV

Current Version | Previous Version | Text Only | Print | Product List | Glossary Off
Versions: 1 2 3 4 5 6 7 8 9 10 11 12 13 14 15 16 17 18 19 20 21 22 23

000
FTUS41 KRLX 282000 AAA
TAFCRW
TAF AMD
KCRW 282051Z 2821/2918 14004KT P6SM SCT120 BKN150 BKN250
     FM290600 00000KT 4SM BR BKN200
     FM290900 00000KT 2SM BR BKN001
     FM291200 00000KT P6SM BKN040=

USA.gov is the U.S. government's official web portal to all federal, state and local government web resources and services.